Terminal Aerodrome Forecast
Issued by NWS

Current Version | Previous Version | Text Only | Print | Product List | Glossary Off
Versions: 1 2 3 4 5 6 7 8 9 10 11 12 13 14 15 16 17 18 19 20 21 22

462
FTUS41 KPBZ 202339
TAFMGW
TAF
KMGW 202339Z 2100/2124 20003KT P6SM BKN050
     FM210900 18003KT 5SM BR SCT050 BKN250
     FM211500 18004KT P6SM BKN035=

USA.gov is the U.S. government's official web portal to all federal, state and local government web resources and services.